Terminal Aerodrome Forecast
Issued by NWS

Home | Current Version | Previous Version | Text Only | Print | Product List | Glossary On
Versions: 1 2 3 4 5 6 7 8 9 10 11 12 13 14 15 16 17
000
FTUS43 KICT 012327
TAFCNU
TAF
KCNU 012327Z 0200/0224 32021G30KT P6SM SCT015 BKN025
      TEMPO 0200/0201 -SN
     FM020100 33016G24KT P6SM BKN025
     FM020800 33010KT P6SM SCT025
     FM021500 VRB04KT P6SM FEW035
     FM021900 19012KT P6SM SKC=

USA.gov is the U.S. government's official web portal to all federal, state and local government web resources and services.